Cosco Aden — VRKF9 — position and weather

sailwx.info

Track history (hours):
 
Tides and Currents Weather Stations Pressure Air Temp Water Temp Dewpoint Dewpoint Depression Visibility Wind Speed Wind Dir Waves Ship Positions

Cosco Aden

Last reported at 2015-Feb-21 08:33 UTC. Time now 2015-Mar-03 04:45 UTC.
Position N 24°30' E 119°14'.
Warning: this ship's position is 9 days out of date.

Length 261 m; draft 11.1 m.

Type: Ship (hazmat cat A). MMSI: 477765900.

Date/timePositionNaut miles runAvg speedWind from/ knotsBaromVisibWave heightAir tempDewpointWater temp
2015-Feb-21 08:33N 24°30' E 119°14'6119.4
2015-Feb-21 05:25N 23°51' E 118°24'23118.9
2015-Feb-20 17:11N 22°23' E 114°31'1617.2
2015-Feb-20 16:15N 22°34' E 114°19'3 3.6
2015-Feb-20 15:25N 22°34' E 114°16'0 0.0
2015-Feb-20 14:25N 22°34' E 114°16'0 0.0
2015-Feb-20 13:31N 22°34' E 114°16'0 0.1
2015-Feb-20 12:31N 22°34' E 114°15'0 0.0
2015-Feb-20 11:27N 22°34' E 114°15'0 0.1
2015-Feb-20 10:33N 22°34' E 114°16'0 0.0
2015-Feb-20 08:21N 22°34' E 114°16'0 0.0
2015-Feb-20 07:21N 22°34' E 114°16'0 0.0
2015-Feb-20 06:15N 22°34' E 114°16'0 0.0
2015-Feb-20 05:21N 22°34' E 114°16'0 0.0
2015-Feb-20 04:33N 22°34' E 114°16'0 0.0
2015-Feb-20 03:33N 22°34' E 114°16'0 0.0
2015-Feb-20 02:30N 22°34' E 114°16'18 5.9
2015-Feb-19 23:30N 22°23' E 114°31'1313.9
2015-Feb-19 22:31N 22°17' E 114°43'19116.9
2015-Feb-19 11:10N 23°31' E 117°54'1219.4
2015-Feb-19 10:33N 23°40' E 118°04'2019.8
2015-Feb-19 09:33N 23°52' E 118°21'2320.1
2015-Feb-19 08:24N 24°07' E 118°40'1517.8
2015-Feb-19 07:32N 24°17' E 118°53'1716.5
2015-Feb-19 06:30N 24°28' E 119°07'1616.5
2015-Feb-19 05:32N 24°38' E 119°20'5716.6
2015-Feb-19 02:05N 25°21' E 120°03'28815.4
2015-Feb-18 07:25N 29°29' E 122°47'1313.1
2015-Feb-18 06:27N 29°41' E 122°53'3718.1
2015-Feb-18 04:26N 30°17' E 122°55'1919.9
2015-Feb-18 03:29N 30°26' E 122°36'1617.1
2015-Feb-18 02:33N 30°33' E 122°19'1212.6
2015-Feb-18 01:34N 30°36' E 122°05'2 1.7
2015-Feb-18 00:32N 30°37' E 122°03'0 0.0
2015-Feb-17 23:32N 30°37' E 122°03'0 0.0
2015-Feb-17 22:32N 30°37' E 122°03'0 0.0
2015-Feb-17 21:32N 30°37' E 122°03'0 0.0
2015-Feb-17 20:32N 30°37' E 122°03'0 0.0
2015-Feb-17 19:32N 30°37' E 122°03'0 0.0
2015-Feb-17 17:32N 30°37' E 122°03'0 0.0
2015-Feb-17 16:29N 30°37' E 122°03'0 0.0
2015-Feb-17 15:32N 30°37' E 122°03'0 0.0
2015-Feb-17 14:29N 30°37' E 122°03'0 0.0
2015-Feb-17 13:32N 30°37' E 122°03'1 0.6
2015-Feb-17 12:33N 30°37' E 122°04'1111.1
2015-Feb-17 11:34N 30°33' E 122°16'9 9.1
2015-Feb-17 10:33N 30°32' E 122°26'1211.9
2015-Feb-17 09:34N 30°34' E 122°40'3 1.3
2015-Feb-17 07:20N 30°36' E 122°42'0 0.1
2015-Feb-17 06:23N 30°36' E 122°42'0 0.0
2015-Feb-17 05:23N 30°36' E 122°42'0 0.0
2015-Feb-17 04:26N 30°36' E 122°42'0 0.1
2015-Feb-17 03:26N 30°36' E 122°42'0 0.1
2015-Feb-17 01:05N 30°36' E 122°42'0 0.0
2015-Feb-17 00:11N 30°36' E 122°42'0 0.0
2015-Feb-16 18:17N 30°36' E 122°42'0 0.1
2015-Feb-16 17:32N 30°36' E 122°42'0 0.0
2015-Feb-16 16:32N 30°36' E 122°42'0 0.0
2015-Feb-16 07:26N 30°36' E 122°42'0 0.0
2015-Feb-16 05:29N 30°36' E 122°42'0 0.0
2015-Feb-16 01:29N 30°36' E 122°42'0 0.0
2015-Feb-15 18:26N 30°36' E 122°42'0 0.0
2015-Feb-15 17:11N 30°36' E 122°42'0 0.1
2015-Feb-15 16:32N 30°36' E 122°42'0 0.0
2015-Feb-15 15:26N 30°36' E 122°42'0 0.0
2015-Feb-15 14:29N 30°36' E 122°42'0 0.1
2015-Feb-15 13:14N 30°36' E 122°42'0 0.0
2015-Feb-15 12:26N 30°36' E 122°42'0 0.0
2015-Feb-15 11:17N 30°36' E 122°42'0 0.0
2015-Feb-15 09:26N 30°36' E 122°42'0 0.1
2015-Feb-15 08:08N 30°36' E 122°42'0 0.1
2015-Feb-15 07:32N 30°36' E 122°42'0 0.0
2015-Feb-15 06:32N 30°36' E 122°42'0 0.0
2015-Feb-15 05:32N 30°36' E 122°42'0 0.0
2015-Feb-15 04:26N 30°36' E 122°42'0 0.0
2015-Feb-14 16:32N 30°36' E 122°42'0 0.0
2015-Feb-14 08:11N 30°36' E 122°42'0 0.0
2015-Feb-14 02:11N 30°36' E 122°42'0 0.0
2015-Feb-13 20:23N 30°36' E 122°42'0 0.0
2015-Feb-13 15:32N 30°36' E 122°42'0 0.1
2015-Feb-13 14:20N 30°36' E 122°42'0 0.0
2015-Feb-13 13:20N 30°36' E 122°42'0 0.0
2015-Feb-13 12:08N 30°36' E 122°42'0 0.1
2015-Feb-13 11:29N 30°36' E 122°42'0 0.0
2015-Feb-13 04:29N 30°36' E 122°42'0 0.0
2015-Feb-13 02:23N 30°36' E 122°42'5 3.0
2015-Feb-13 00:32N 30°39' E 122°48'33410.8
2015-Feb-11 17:32N 35°56' E 120°44'1514.9
2015-Feb-11 16:33N 35°60' E 120°26'1111.1
2015-Feb-11 15:33N 36°00' E 120°12'  
Track history (hours):
 
Tides and Currents Weather Stations Pressure Air Temp Water Temp Dewpoint Dewpoint Depression Visibility Wind Speed Wind Dir Waves Ship Positions

Cosco Aden

Last reported at 2015-Feb-21 08:33 UTC. Time now 2015-Mar-03 04:45 UTC.
Position N 24°30' E 119°14'.
Warning: this ship's position is 9 days out of date.

Length 261 m; draft 11.1 m.

Type: Ship (hazmat cat A). MMSI: 477765900.

Date/timePositionNaut miles runAvg speedWind from/ knotsBaromVisibWave heightAir tempDewpointWater temp
2015-Feb-21 08:33N 24°30' E 119°14'6119.4
2015-Feb-21 05:25N 23°51' E 118°24'23118.9
2015-Feb-20 17:11N 22°23' E 114°31'1617.2
2015-Feb-20 16:15N 22°34' E 114°19'3 3.6
2015-Feb-20 15:25N 22°34' E 114°16'0 0.0
2015-Feb-20 14:25N 22°34' E 114°16'0 0.0
2015-Feb-20 13:31N 22°34' E 114°16'0 0.1
2015-Feb-20 12:31N 22°34' E 114°15'0 0.0
2015-Feb-20 11:27N 22°34' E 114°15'0 0.1
2015-Feb-20 10:33N 22°34' E 114°16'0 0.0
2015-Feb-20 08:21N 22°34' E 114°16'0 0.0
2015-Feb-20 07:21N 22°34' E 114°16'0 0.0
2015-Feb-20 06:15N 22°34' E 114°16'0 0.0
2015-Feb-20 05:21N 22°34' E 114°16'0 0.0
2015-Feb-20 04:33N 22°34' E 114°16'0 0.0
2015-Feb-20 03:33N 22°34' E 114°16'0 0.0
2015-Feb-20 02:30N 22°34' E 114°16'18 5.9
2015-Feb-19 23:30N 22°23' E 114°31'1313.9
2015-Feb-19 22:31N 22°17' E 114°43'19116.9
2015-Feb-19 11:10N 23°31' E 117°54'1219.4
2015-Feb-19 10:33N 23°40' E 118°04'2019.8
2015-Feb-19 09:33N 23°52' E 118°21'2320.1
2015-Feb-19 08:24N 24°07' E 118°40'1517.8
2015-Feb-19 07:32N 24°17' E 118°53'1716.5
2015-Feb-19 06:30N 24°28' E 119°07'1616.5
2015-Feb-19 05:32N 24°38' E 119°20'5716.6
2015-Feb-19 02:05N 25°21' E 120°03'28815.4
2015-Feb-18 07:25N 29°29' E 122°47'1313.1
2015-Feb-18 06:27N 29°41' E 122°53'3718.1
2015-Feb-18 04:26N 30°17' E 122°55'1919.9
2015-Feb-18 03:29N 30°26' E 122°36'1617.1
2015-Feb-18 02:33N 30°33' E 122°19'1212.6
2015-Feb-18 01:34N 30°36' E 122°05'2 1.7
2015-Feb-18 00:32N 30°37' E 122°03'0 0.0
2015-Feb-17 23:32N 30°37' E 122°03'0 0.0
2015-Feb-17 22:32N 30°37' E 122°03'0 0.0
2015-Feb-17 21:32N 30°37' E 122°03'0 0.0
2015-Feb-17 20:32N 30°37' E 122°03'0 0.0
2015-Feb-17 19:32N 30°37' E 122°03'0 0.0
2015-Feb-17 17:32N 30°37' E 122°03'0 0.0
2015-Feb-17 16:29N 30°37' E 122°03'0 0.0
2015-Feb-17 15:32N 30°37' E 122°03'0 0.0
2015-Feb-17 14:29N 30°37' E 122°03'0 0.0
2015-Feb-17 13:32N 30°37' E 122°03'1 0.6
2015-Feb-17 12:33N 30°37' E 122°04'1111.1
2015-Feb-17 11:34N 30°33' E 122°16'9 9.1
2015-Feb-17 10:33N 30°32' E 122°26'1211.9
2015-Feb-17 09:34N 30°34' E 122°40'3 1.3
2015-Feb-17 07:20N 30°36' E 122°42'0 0.1
2015-Feb-17 06:23N 30°36' E 122°42'0 0.0
2015-Feb-17 05:23N 30°36' E 122°42'0 0.0
2015-Feb-17 04:26N 30°36' E 122°42'0 0.1
2015-Feb-17 03:26N 30°36' E 122°42'0 0.1
2015-Feb-17 01:05N 30°36' E 122°42'0 0.0
2015-Feb-17 00:11N 30°36' E 122°42'0 0.0
2015-Feb-16 18:17N 30°36' E 122°42'0 0.1
2015-Feb-16 17:32N 30°36' E 122°42'0 0.0
2015-Feb-16 16:32N 30°36' E 122°42'0 0.0
2015-Feb-16 07:26N 30°36' E 122°42'0 0.0
2015-Feb-16 05:29N 30°36' E 122°42'0 0.0
2015-Feb-16 01:29N 30°36' E 122°42'0 0.0
2015-Feb-15 18:26N 30°36' E 122°42'0 0.0
2015-Feb-15 17:11N 30°36' E 122°42'0 0.1
2015-Feb-15 16:32N 30°36' E 122°42'0 0.0
2015-Feb-15 15:26N 30°36' E 122°42'0 0.0
2015-Feb-15 14:29N 30°36' E 122°42'0 0.1
2015-Feb-15 13:14N 30°36' E 122°42'0 0.0
2015-Feb-15 12:26N 30°36' E 122°42'0 0.0
2015-Feb-15 11:17N 30°36' E 122°42'0 0.0
2015-Feb-15 09:26N 30°36' E 122°42'0 0.1
2015-Feb-15 08:08N 30°36' E 122°42'0 0.1
2015-Feb-15 07:32N 30°36' E 122°42'0 0.0
2015-Feb-15 06:32N 30°36' E 122°42'0 0.0
2015-Feb-15 05:32N 30°36' E 122°42'0 0.0
2015-Feb-15 04:26N 30°36' E 122°42'0 0.0
2015-Feb-14 16:32N 30°36' E 122°42'0 0.0
2015-Feb-14 08:11N 30°36' E 122°42'0 0.0
2015-Feb-14 02:11N 30°36' E 122°42'0 0.0
2015-Feb-13 20:23N 30°36' E 122°42'0 0.0
2015-Feb-13 15:32N 30°36' E 122°42'0 0.1
2015-Feb-13 14:20N 30°36' E 122°42'0 0.0
2015-Feb-13 13:20N 30°36' E 122°42'0 0.0
2015-Feb-13 12:08N 30°36' E 122°42'0 0.1
2015-Feb-13 11:29N 30°36' E 122°42'0 0.0
2015-Feb-13 04:29N 30°36' E 122°42'0 0.0
2015-Feb-13 02:23N 30°36' E 122°42'5 3.0
2015-Feb-13 00:32N 30°39' E 122°48'33410.8
2015-Feb-11 17:32N 35°56' E 120°44'1514.9
2015-Feb-11 16:33N 35°60' E 120°26'1111.1
2015-Feb-11 15:33N 36°00' E 120°12'  

Dump ship's entire track history